createdAt,value
2018-04-27T00:00:04.786Z,85.4
2018-04-27T00:01:05.435Z,85.6
2018-04-27T00:02:06.089Z,85.4
2018-04-27T00:03:06.742Z,85.6
2018-04-27T00:04:07.396Z,85.6
2018-04-27T00:05:08.129Z,85.1
2018-04-27T00:06:08.699Z,84.7
2018-04-27T00:07:09.351Z,84.5
2018-04-27T00:08:10.041Z,84.3
2018-04-27T00:09:10.697Z,85.0
2018-04-27T00:10:11.345Z,85.1
2018-04-27T00:11:11.998Z,84.5
2018-04-27T00:12:12.650Z,84.1
2018-04-27T00:13:13.304Z,84.0
2018-04-27T00:14:13.961Z,84.2
2018-04-27T00:15:14.643Z,84.5
2018-04-27T00:16:15.297Z,84.2
2018-04-27T00:17:15.949Z,84.6
2018-04-27T00:18:16.602Z,84.1
2018-04-27T00:19:17.254Z,84.4
2018-04-27T00:20:17.935Z,84.5
2018-04-27T00:21:18.597Z,84.6
2018-04-27T00:22:19.249Z,84.7
2018-04-27T00:23:19.902Z,84.6
2018-04-27T00:24:20.553Z,85.0
2018-04-27T00:25:21.205Z,85.2
2018-04-27T00:26:21.857Z,85.2
2018-04-27T00:27:22.511Z,84.9
2018-04-27T00:28:23.163Z,85.1
2018-04-27T00:29:23.816Z,85.2
2018-04-27T00:30:24.467Z,84.9
2018-04-27T00:31:25.120Z,85.0
2018-04-27T00:32:25.808Z,85.4
2018-04-27T00:33:26.460Z,84.9
2018-04-27T00:34:27.184Z,85.2
2018-04-27T00:35:27.765Z,85.6
2018-04-27T00:36:28.455Z,85.4
2018-04-27T00:37:29.109Z,86.1
2018-04-27T00:38:29.760Z,85.8
2018-04-27T00:39:30.414Z,85.6
2018-04-27T00:40:31.066Z,85.8
2018-04-27T00:41:31.719Z,86.7
2018-04-27T00:42:32.407Z,86.5
2018-04-27T00:43:33.063Z,86.7
2018-04-27T00:44:33.713Z,86.5
2018-04-27T00:45:34.366Z,86.6
2018-04-27T00:46:35.018Z,86.1
2018-04-27T00:47:35.671Z,86.3
2018-04-27T00:48:36.360Z,86.3
2018-04-27T00:49:37.012Z,86.1
2018-04-27T00:50:37.664Z,86.4
2018-04-27T00:51:38.317Z,86.6
2018-04-27T00:52:38.968Z,86.7
2018-04-27T00:53:39.621Z,86.8
2018-04-27T00:54:40.273Z,86.8
2018-04-27T00:55:40.925Z,86.8
2018-04-27T00:56:41.579Z,86.8
2018-04-27T00:57:42.266Z,87.1
2018-04-27T00:58:42.919Z,86.7
2018-04-27T00:59:43.573Z,86.4
2018-04-27T01:00:44.221Z,86.5
2018-04-27T01:01:44.875Z,86.7
2018-04-27T01:02:45.526Z,87.1
2018-04-27T01:03:46.179Z,87.2
2018-04-27T01:04:46.831Z,87.6
2018-04-27T01:05:47.487Z,87.4
2018-04-27T01:06:48.174Z,87.4
2018-04-27T01:07:48.825Z,87.3
2018-04-27T01:08:49.478Z,87.2
2018-04-27T01:09:50.129Z,87.3
2018-04-27T01:10:50.780Z,87.5
2018-04-27T01:11:51.433Z,87.1
2018-04-27T01:12:52.086Z,88.0
2018-04-27T01:13:52.738Z,87.4
2018-04-27T01:14:53.389Z,87.2
2018-04-27T01:15:54.041Z,87.6
2018-04-27T01:16:54.696Z,87.0
2018-04-27T01:17:55.383Z,87.0
2018-04-27T01:18:56.035Z,87.2
2018-04-27T01:19:56.726Z,87.5
2018-04-27T01:20:57.377Z,87.5
2018-04-27T01:21:58.030Z,87.6
2018-04-27T01:22:58.717Z,87.5
2018-04-27T01:23:59.369Z,87.0
2018-04-27T01:25:00.025Z,87.8
2018-04-27T01:26:00.674Z,87.3
2018-04-27T01:27:01.365Z,87.0
2018-04-27T01:28:02.017Z,88.0
2018-04-27T01:29:02.670Z,87.9
2018-04-27T01:30:03.324Z,87.7
2018-04-27T01:31:03.975Z,87.7
2018-04-27T01:32:04.627Z,88.1
2018-04-27T01:33:05.279Z,87.9
2018-04-27T01:34:05.929Z,87.8
2018-04-27T01:35:06.582Z,87.8
2018-04-27T01:36:07.233Z,87.7
2018-04-27T01:37:07.886Z,87.8
2018-04-27T01:38:08.537Z,88.1
2018-04-27T01:39:09.189Z,88.0
2018-04-27T01:40:09.840Z,88.0
2018-04-27T01:41:10.493Z,88.1
2018-04-27T01:42:11.145Z,87.6
2018-04-27T01:43:11.796Z,87.8
2018-04-27T01:44:12.449Z,87.2
2018-04-27T01:45:13.099Z,87.4
2018-04-27T01:46:13.756Z,87.7
2018-04-27T01:47:14.403Z,87.8
2018-04-27T01:48:15.058Z,87.8
2018-04-27T01:49:15.707Z,87.8
2018-04-27T01:50:16.359Z,87.2
2018-04-27T01:51:17.034Z,87.4
2018-04-27T01:52:17.664Z,87.7
2018-04-27T01:53:18.315Z,87.7
2018-04-27T01:54:18.967Z,87.4
2018-04-27T01:55:19.619Z,87.1
2018-04-27T01:56:20.269Z,87.2
2018-04-27T01:57:20.922Z,87.1
2018-04-27T01:58:21.573Z,87.1
2018-04-27T01:59:22.227Z,87.2
2018-04-27T02:00:22.913Z,87.6
2018-04-27T02:01:23.564Z,87.3
2018-04-27T02:02:24.217Z,87.5
2018-04-27T02:03:24.869Z,87.5
2018-04-27T02:04:25.549Z,87.4
2018-04-27T02:05:26.171Z,87.0
2018-04-27T02:06:26.848Z,87.4
2018-04-27T02:07:27.474Z,87.4
2018-04-27T02:08:28.125Z,87.3
2018-04-27T02:09:28.778Z,87.5
2018-04-27T02:10:29.430Z,87.0
2018-04-27T02:11:30.082Z,87.3
2018-04-27T02:12:30.733Z,87.0
2018-04-27T02:13:31.387Z,87.0
2018-04-27T02:14:32.037Z,87.0
2018-04-27T02:15:32.690Z,87.0
2018-04-27T02:16:33.339Z,87.1
2018-04-27T02:17:33.995Z,87.2
2018-04-27T02:18:34.681Z,87.3
2018-04-27T02:19:35.331Z,87.5
2018-04-27T02:20:36.034Z,88.1
2018-04-27T02:21:36.686Z,87.3
2018-04-27T02:22:37.336Z,87.3
2018-04-27T02:23:37.988Z,87.2
2018-04-27T02:24:38.641Z,87.4
2018-04-27T02:25:39.292Z,87.1
2018-04-27T02:26:39.943Z,86.9
2018-04-27T02:27:40.595Z,87.4
2018-04-27T02:28:41.246Z,87.4
2018-04-27T02:29:41.897Z,87.3
2018-04-27T02:30:42.548Z,87.4
2018-04-27T02:31:43.201Z,87.7
2018-04-27T02:32:43.852Z,87.7
2018-04-27T02:33:44.503Z,87.7
2018-04-27T02:34:45.155Z,87.9
2018-04-27T02:35:45.843Z,87.7
2018-04-27T02:36:46.493Z,87.7
2018-04-27T02:37:47.145Z,88.1
2018-04-27T02:38:47.798Z,88.4
2018-04-27T02:39:48.447Z,88.2
2018-04-27T02:40:49.099Z,88.3
2018-04-27T02:41:49.751Z,88.1
2018-04-27T02:42:50.439Z,88.1
2018-04-27T02:43:51.091Z,88.2
2018-04-27T02:44:51.745Z,88.1
2018-04-27T02:45:52.394Z,88.2
2018-04-27T02:46:53.046Z,88.1
2018-04-27T02:47:53.702Z,88.2
2018-04-27T02:48:54.389Z,88.3
2018-04-27T02:49:55.039Z,88.4
2018-04-27T02:50:55.691Z,88.2
2018-04-27T02:51:56.343Z,87.9
2018-04-27T02:52:56.994Z,87.6
2018-04-27T02:53:57.647Z,87.6
2018-04-27T02:54:58.295Z,87.6
2018-04-27T02:55:58.951Z,88.0
2018-04-27T02:56:59.599Z,87.1
2018-04-27T02:58:00.250Z,87.4
2018-04-27T02:59:00.900Z,87.3
2018-04-27T03:00:01.554Z,87.2
2018-04-27T03:01:02.207Z,87.3
2018-04-27T03:02:02.896Z,87.3
2018-04-27T03:03:03.548Z,87.2
2018-04-27T03:04:04.238Z,87.0
2018-04-27T03:05:04.887Z,87.1
2018-04-27T03:06:05.538Z,87.3
2018-04-27T03:07:06.191Z,87.4
2018-04-27T03:08:06.843Z,87.6
2018-04-27T03:09:07.494Z,87.3
2018-04-27T03:10:08.145Z,87.9
2018-04-27T03:11:08.796Z,87.5
2018-04-27T03:12:09.447Z,87.8
2018-04-27T03:13:10.097Z,87.0
2018-04-27T03:14:10.750Z,87.7
2018-04-27T03:15:11.401Z,87.4
2018-04-27T03:16:12.056Z,87.1
2018-04-27T03:17:12.744Z,87.4
2018-04-27T03:18:13.394Z,87.5
2018-04-27T03:19:14.046Z,87.5
2018-04-27T03:20:14.697Z,87.0
2018-04-27T03:21:15.351Z,86.8
2018-04-27T03:22:16.004Z,86.5
2018-04-27T03:23:16.652Z,87.0
2018-04-27T03:24:17.303Z,86.8
2018-04-27T03:25:17.955Z,86.7
2018-04-27T03:26:18.606Z,86.3
2018-04-27T03:27:19.293Z,86.6
2018-04-27T03:28:19.945Z,86.7
2018-04-27T03:29:20.595Z,87.0
2018-04-27T03:30:21.249Z,86.6
2018-04-27T03:31:21.898Z,86.4
2018-04-27T03:32:22.548Z,86.4
2018-04-27T03:33:23.200Z,86.5
2018-04-27T03:34:23.931Z,86.4
2018-04-27T03:35:24.503Z,86.3
2018-04-27T03:36:25.155Z,86.4
2018-04-27T03:37:25.810Z,86.3
2018-04-27T03:38:26.498Z,86.4
2018-04-27T03:39:27.150Z,85.7
2018-04-27T03:40:27.804Z,85.7
2018-04-27T03:41:28.456Z,85.9
2018-04-27T03:42:29.110Z,85.7
2018-04-27T03:43:29.762Z,85.7
2018-04-27T03:44:30.413Z,85.5
2018-04-27T03:45:31.065Z,85.7
2018-04-27T03:46:31.755Z,85.8
2018-04-27T03:47:32.407Z,85.8
2018-04-27T03:48:33.061Z,85.9
2018-04-27T03:49:33.711Z,85.8
2018-04-27T03:50:34.366Z,85.8
2018-04-27T03:51:35.020Z,85.6
2018-04-27T03:52:35.669Z,86.1
2018-04-27T03:53:36.320Z,86.2
2018-04-27T03:54:36.978Z,86.2
2018-04-27T03:55:37.628Z,85.9
2018-04-27T03:56:38.283Z,85.9
2018-04-27T03:57:38.939Z,85.7
2018-04-27T03:58:39.591Z,85.6
2018-04-27T03:59:40.244Z,85.5
2018-04-27T04:00:40.898Z,85.7
2018-04-27T04:01:41.552Z,85.7
2018-04-27T04:02:42.205Z,85.6
2018-04-27T04:03:42.860Z,85.5
2018-04-27T04:04:43.512Z,85.1
2018-04-27T04:05:44.166Z,85.2
2018-04-27T04:06:44.819Z,85.2
2018-04-27T04:07:45.476Z,85.0
2018-04-27T04:08:46.165Z,85.2
2018-04-27T04:09:46.821Z,84.8
2018-04-27T04:10:47.479Z,84.9
2018-04-27T04:11:48.130Z,85.0
2018-04-27T04:12:48.787Z,85.2
2018-04-27T04:13:49.445Z,84.9
2018-04-27T04:14:50.094Z,85.0
2018-04-27T04:15:50.754Z,84.8
2018-04-27T04:16:51.403Z,85.0
2018-04-27T04:17:52.058Z,85.1
2018-04-27T04:18:52.713Z,84.3
2018-04-27T04:19:53.367Z,84.4
2018-04-27T04:20:54.023Z,84.4
2018-04-27T04:21:54.676Z,84.4
2018-04-27T04:22:55.333Z,84.8
2018-04-27T04:23:55.989Z,85.1
2018-04-27T04:24:56.643Z,85.2
2018-04-27T04:25:57.298Z,84.3
2018-04-27T04:26:57.988Z,84.1
2018-04-27T04:27:58.645Z,83.7
2018-04-27T04:28:59.302Z,83.8
2018-04-27T04:29:59.954Z,83.5
2018-04-27T04:31:00.609Z,83.6
2018-04-27T04:32:01.264Z,83.8
2018-04-27T04:33:01.921Z,83.7
2018-04-27T04:34:02.575Z,83.9
2018-04-27T04:35:03.229Z,83.2
2018-04-27T04:36:03.884Z,83.6
2018-04-27T04:37:04.635Z,83.0
2018-04-27T04:38:05.232Z,83.6
2018-04-27T04:39:05.884Z,83.0
2018-04-27T04:40:06.539Z,83.3
2018-04-27T04:41:07.194Z,82.9
2018-04-27T04:42:07.851Z,83.2
2018-04-27T04:43:08.507Z,83.0
2018-04-27T04:44:09.161Z,83.3
2018-04-27T04:45:09.821Z,83.2
2018-04-27T04:46:10.473Z,83.9
2018-04-27T04:47:11.130Z,83.9
2018-04-27T04:48:11.787Z,83.7
2018-04-27T04:49:12.444Z,83.7
2018-04-27T04:50:13.103Z,83.7
2018-04-27T04:51:13.796Z,83.5
2018-04-27T04:52:14.446Z,83.9
2018-04-27T04:53:15.105Z,83.3
2018-04-27T04:54:15.761Z,83.5
2018-04-27T04:55:16.416Z,83.2
2018-04-27T04:56:17.073Z,83.9
2018-04-27T04:57:17.737Z,83.2
2018-04-27T04:58:18.384Z,83.2
2018-04-27T04:59:19.041Z,83.2
2018-04-27T05:00:19.699Z,83.3
2018-04-27T05:01:20.355Z,83.3
2018-04-27T05:02:21.009Z,83.0
2018-04-27T05:03:21.667Z,83.2
2018-04-27T05:04:22.322Z,83.2
2018-04-27T05:05:22.977Z,82.8
2018-04-27T05:06:23.638Z,82.8
2018-04-27T05:07:24.292Z,83.1
2018-04-27T05:08:24.981Z,82.6
2018-04-27T05:09:25.638Z,82.3
2018-04-27T05:10:26.302Z,82.0
2018-04-27T05:11:26.953Z,82.6
2018-04-27T05:12:27.608Z,82.4
2018-04-27T05:13:28.263Z,81.2
2018-04-27T05:14:28.920Z,81.5
2018-04-27T05:15:29.575Z,81.2
2018-04-27T05:16:30.232Z,81.1
2018-04-27T05:17:30.891Z,80.8
2018-04-27T05:18:31.545Z,80.5
2018-04-27T05:19:32.201Z,80.2
2018-04-27T05:20:32.857Z,80.1
2018-04-27T05:21:33.513Z,80.0
2018-04-27T05:22:34.209Z,80.1
2018-04-27T05:23:34.864Z,79.6
2018-04-27T05:24:35.520Z,79.4
2018-04-27T05:25:36.176Z,79.7
2018-04-27T05:26:36.832Z,79.8
2018-04-27T05:27:37.491Z,79.6
2018-04-27T05:28:38.147Z,79.2
2018-04-27T05:29:38.833Z,78.8
2018-04-27T05:30:39.461Z,79.2
2018-04-27T05:31:40.117Z,79.1
2018-04-27T05:32:40.774Z,79.0
2018-04-27T05:33:41.432Z,79.0
2018-04-27T05:34:42.092Z,79.0
2018-04-27T05:35:42.745Z,78.8
2018-04-27T05:36:43.401Z,78.2
2018-04-27T05:37:44.058Z,77.7
2018-04-27T05:38:44.714Z,77.4
2018-04-27T05:39:45.372Z,77.9
2018-04-27T05:40:46.031Z,77.5
2018-04-27T05:41:46.687Z,77.5
2018-04-27T05:42:47.345Z,77.5
2018-04-27T05:43:48.001Z,76.4
2018-04-27T05:44:48.657Z,77.0
2018-04-27T05:45:49.314Z,77.9
2018-04-27T05:46:49.974Z,78.2
2018-04-27T05:47:50.635Z,78.6
2018-04-27T05:48:51.329Z,78.4
2018-04-27T05:49:51.989Z,78.7
2018-04-27T05:50:52.657Z,78.5
2018-04-27T05:51:53.309Z,78.3
2018-04-27T05:52:53.968Z,78.1
2018-04-27T05:53:54.665Z,77.4
2018-04-27T05:54:55.324Z,77.4
2018-04-27T05:55:55.983Z,76.6
2018-04-27T05:56:56.643Z,76.7
2018-04-27T05:57:57.303Z,76.3
2018-04-27T05:58:57.963Z,75.6
2018-04-27T05:59:58.622Z,75.0
2018-04-27T06:00:59.283Z,74.3
2018-04-27T06:01:59.945Z,73.3
2018-04-27T06:03:00.642Z,73.2
2018-04-27T06:04:01.303Z,73.0
2018-04-27T06:05:01.963Z,73.2
2018-04-27T06:06:02.623Z,72.8
2018-04-27T06:07:03.285Z,72.9
2018-04-27T06:08:03.944Z,72.8
2018-04-27T06:09:04.606Z,72.4
2018-04-27T06:10:05.286Z,72.4
2018-04-27T06:11:05.931Z,72.3
2018-04-27T06:12:06.594Z,72.2
2018-04-27T06:13:07.288Z,72.5
2018-04-27T06:14:07.948Z,71.8
2018-04-27T06:15:08.608Z,72.2
2018-04-27T06:16:09.289Z,71.9
2018-04-27T06:17:09.929Z,71.9
2018-04-27T06:18:10.591Z,71.6
2018-04-27T06:19:11.252Z,71.5
2018-04-27T06:20:11.912Z,71.0
2018-04-27T06:21:12.574Z,70.9
2018-04-27T06:22:13.232Z,70.8
2018-04-27T06:23:13.892Z,71.0
2018-04-27T06:24:14.553Z,71.0
2018-04-27T06:25:15.214Z,70.6
2018-04-27T06:26:15.877Z,70.2
2018-04-27T06:27:16.539Z,70.5
2018-04-27T06:28:17.200Z,70.4
2018-04-27T06:29:17.862Z,69.8
2018-04-27T06:30:18.521Z,70.0
2018-04-27T06:31:19.183Z,69.9
2018-04-27T06:32:19.844Z,69.9
2018-04-27T06:33:20.506Z,70.2
2018-04-27T06:34:21.203Z,69.9
2018-04-27T06:35:21.863Z,70.3
2018-04-27T06:36:22.530Z,69.3
2018-04-27T06:37:23.213Z,69.6
2018-04-27T06:38:23.875Z,69.3
2018-04-27T06:39:24.618Z,68.8
2018-04-27T06:40:25.263Z,68.8
2018-04-27T06:41:25.926Z,68.8
2018-04-27T06:42:26.585Z,69.2
2018-04-27T06:43:27.246Z,68.5
2018-04-27T06:44:27.909Z,68.5
2018-04-27T06:45:28.576Z,68.6
2018-04-27T06:46:29.238Z,67.9
2018-04-27T06:47:29.934Z,67.9
2018-04-27T06:48:30.603Z,67.6
2018-04-27T06:49:31.293Z,67.3
2018-04-27T06:50:31.955Z,67.2
2018-04-27T06:51:32.652Z,67.4
2018-04-27T06:52:33.308Z,68.1
2018-04-27T06:53:34.058Z,67.5
2018-04-27T06:54:34.719Z,66.9
2018-04-27T06:55:35.379Z,67.1
2018-04-27T06:56:36.043Z,66.6
2018-04-27T06:57:36.706Z,67.0
2018-04-27T06:58:37.369Z,65.8
2018-04-27T06:59:38.032Z,65.9
2018-04-27T07:00:38.693Z,66.0
2018-04-27T07:01:39.354Z,65.7
2018-04-27T07:02:40.016Z,65.3
2018-04-27T07:03:40.684Z,65.1
2018-04-27T07:04:41.343Z,64.4
2018-04-27T07:05:42.006Z,64.5
2018-04-27T07:06:42.673Z,63.8
2018-04-27T07:07:43.334Z,63.5
2018-04-27T07:08:43.999Z,63.1
2018-04-27T07:09:44.663Z,63.0
2018-04-27T07:10:45.326Z,62.6
2018-04-27T07:11:45.987Z,62.2
2018-04-27T07:12:46.690Z,61.2
2018-04-27T07:13:47.356Z,60.8
2018-04-27T07:14:48.020Z,59.9
2018-04-27T07:15:48.680Z,59.5
2018-04-27T07:16:49.404Z,59.0
2018-04-27T07:17:50.010Z,57.8
2018-04-27T07:18:50.680Z,57.2
2018-04-27T07:19:51.345Z,56.7
2018-04-27T07:20:52.002Z,55.6
2018-04-27T07:21:52.666Z,55.0
2018-04-27T07:22:53.331Z,55.2
2018-04-27T07:23:53.996Z,54.2
2018-04-27T07:24:54.695Z,53.0
2018-04-27T07:25:55.374Z,53.2
2018-04-27T07:26:56.027Z,51.9
2018-04-27T07:27:56.694Z,52.6
2018-04-27T07:28:57.357Z,51.2
2018-04-27T07:29:58.021Z,50.7
2018-04-27T07:30:58.685Z,50.8
2018-04-27T07:31:59.353Z,50.4
2018-04-27T07:33:00.017Z,49.8
2018-04-27T07:34:00.719Z,50.0
2018-04-27T07:35:01.386Z,49.6
2018-04-27T07:36:02.054Z,49.2
2018-04-27T07:37:02.723Z,48.3
2018-04-27T07:38:03.390Z,48.0
2018-04-27T07:39:04.056Z,48.2
2018-04-27T07:40:04.806Z,47.7
2018-04-27T07:41:05.418Z,46.9
2018-04-27T07:42:06.084Z,46.4
2018-04-27T07:43:06.752Z,46.2
2018-04-27T07:44:07.417Z,45.4
2018-04-27T07:45:08.084Z,44.7
2018-04-27T07:46:08.750Z,44.2
2018-04-27T07:47:09.416Z,44.4
2018-04-27T07:48:10.081Z,43.4
2018-04-27T07:49:10.747Z,43.2
2018-04-27T07:50:11.413Z,40.9
2018-04-27T07:51:12.080Z,40.1
2018-04-27T07:52:12.747Z,39.9
2018-04-27T07:53:13.411Z,39.0
2018-04-27T07:54:14.079Z,38.2
2018-04-27T07:55:14.789Z,37.5
2018-04-27T07:56:15.416Z,37.4
2018-04-27T07:57:16.084Z,36.3
2018-04-27T07:58:16.750Z,35.2
2018-04-27T07:59:17.418Z,35.2
2018-04-27T08:00:18.084Z,35.6
2018-04-27T08:01:18.757Z,35.9
2018-04-27T08:02:19.464Z,35.4
2018-04-27T08:03:20.162Z,35.2
2018-04-27T08:04:20.830Z,34.3
2018-04-27T08:05:21.497Z,34.4
2018-04-27T08:06:22.167Z,34.5
2018-04-27T08:07:22.836Z,34.2
2018-04-27T08:08:23.504Z,33.3
2018-04-27T08:09:24.173Z,34.0
2018-04-27T08:10:24.841Z,33.2
2018-04-27T08:11:25.589Z,31.9
2018-04-27T08:12:26.216Z,32.0
2018-04-27T08:13:26.885Z,32.7
2018-04-27T08:14:27.557Z,33.0
2018-04-27T08:15:28.222Z,33.4
2018-04-27T08:16:28.891Z,33.3
2018-04-27T08:17:29.561Z,31.9
2018-04-27T08:18:30.232Z,31.0
2018-04-27T08:19:30.905Z,31.5
2018-04-27T08:20:31.570Z,31.1
2018-04-27T08:21:32.241Z,31.9
2018-04-27T08:22:32.911Z,32.0
2018-04-27T08:23:33.580Z,30.9
2018-04-27T08:24:34.251Z,30.7
2018-04-27T08:25:34.918Z,30.0
2018-04-27T08:26:35.587Z,30.3
2018-04-27T08:27:36.294Z,30.0
2018-04-27T08:28:36.959Z,30.4
2018-04-27T08:29:37.629Z,30.3
2018-04-27T08:30:38.301Z,29.4
2018-04-27T08:31:38.973Z,27.9
2018-04-27T08:32:39.639Z,27.9
2018-04-27T08:33:40.307Z,27.1
2018-04-27T08:34:40.977Z,26.4
2018-04-27T08:35:41.646Z,26.5
2018-04-27T08:36:42.316Z,27.8
2018-04-27T08:37:42.984Z,28.0
2018-04-27T08:38:43.655Z,28.3
2018-04-27T08:39:44.325Z,28.6
2018-04-27T08:40:44.996Z,28.8
2018-04-27T08:41:45.665Z,26.8
2018-04-27T08:42:46.333Z,27.0
2018-04-27T08:43:47.006Z,27.2
2018-04-27T08:44:47.673Z,28.1
2018-04-27T08:45:48.343Z,28.5
2018-04-27T08:46:49.011Z,27.6
2018-04-27T08:47:49.682Z,26.9
2018-04-27T08:48:50.351Z,27.7
2018-04-27T08:49:51.022Z,26.5
2018-04-27T08:50:51.695Z,26.5
2018-04-27T08:51:52.359Z,26.9
2018-04-27T08:52:53.029Z,26.8
2018-04-27T08:53:53.698Z,28.6
2018-04-27T08:54:54.368Z,27.8
2018-04-27T08:55:55.037Z,28.3
2018-04-27T08:56:55.713Z,28.6
2018-04-27T08:57:56.380Z,29.1
2018-04-27T08:58:57.085Z,29.3
2018-04-27T08:59:57.754Z,28.7
2018-04-27T09:00:58.435Z,28.5
2018-04-27T09:01:59.094Z,27.8
2018-04-27T09:02:59.762Z,27.8
2018-04-27T09:04:00.434Z,27.9
2018-04-27T09:05:01.142Z,27.8
2018-04-27T09:06:01.808Z,27.0
2018-04-27T09:07:02.479Z,27.0
2018-04-27T09:08:03.159Z,26.7
2018-04-27T09:09:03.855Z,26.4
2018-04-27T09:10:04.525Z,26.6
2018-04-27T09:11:05.195Z,26.3
2018-04-27T09:12:05.870Z,25.6
2018-04-27T09:13:06.536Z,24.8
2018-04-27T09:14:07.211Z,25.8
2018-04-27T09:15:07.910Z,24.9
2018-04-27T09:16:08.578Z,24.7
2018-04-27T09:17:09.248Z,24.8
2018-04-27T09:18:09.957Z,25.1
2018-04-27T09:19:10.630Z,25.6
2018-04-27T09:20:11.298Z,25.9
2018-04-27T09:21:11.966Z,25.6
2018-04-27T09:22:12.635Z,26.7
2018-04-27T09:23:13.305Z,26.3
2018-04-27T09:24:13.972Z,24.9
2018-04-27T09:25:14.641Z,25.6
2018-04-27T09:26:15.312Z,25.4
2018-04-27T09:27:15.988Z,25.0
2018-04-27T09:28:16.691Z,25.1
2018-04-27T09:29:17.359Z,24.9
2018-04-27T09:30:18.031Z,25.0
2018-04-27T09:31:18.700Z,24.0
2018-04-27T09:32:19.411Z,24.3
2018-04-27T09:33:20.039Z,24.8
2018-04-27T09:34:20.710Z,25.1
2018-04-27T09:35:21.383Z,24.9
2018-04-27T09:36:22.052Z,23.9
2018-04-27T09:37:22.716Z,23.9
2018-04-27T09:38:23.385Z,23.7
2018-04-27T09:39:24.055Z,23.6
2018-04-27T09:40:24.724Z,24.6
2018-04-27T09:41:25.431Z,24.5
2018-04-27T09:42:26.101Z,24.6
2018-04-27T09:43:26.770Z,24.5
2018-04-27T09:44:27.437Z,24.8
2018-04-27T09:45:28.108Z,24.3
2018-04-27T09:46:28.774Z,24.1
2018-04-27T09:47:29.442Z,23.7
2018-04-27T09:48:30.111Z,23.7
2018-04-27T09:49:30.780Z,23.2
2018-04-27T09:50:31.451Z,23.1
2018-04-27T09:51:32.120Z,23.4
2018-04-27T09:52:32.788Z,24.0
2018-04-27T09:53:33.455Z,24.3
2018-04-27T09:54:34.126Z,25.2
2018-04-27T09:55:34.801Z,25.4
2018-04-27T09:56:35.463Z,25.6
2018-04-27T09:57:36.170Z,25.8
2018-04-27T09:58:36.839Z,24.6
2018-04-27T09:59:37.506Z,24.9
2018-04-27T10:00:38.172Z,25.4
2018-04-27T10:01:38.840Z,25.6
2018-04-27T10:02:39.508Z,25.3
2018-04-27T10:03:40.177Z,25.6
2018-04-27T10:04:40.844Z,26.5
2018-04-27T10:05:41.576Z,26.9
2018-04-27T10:06:42.185Z,25.9
2018-04-27T10:07:42.850Z,25.7
2018-04-27T10:08:43.519Z,25.4
2018-04-27T10:09:44.186Z,25.7
2018-04-27T10:10:44.857Z,26.7
2018-04-27T10:11:45.524Z,26.1
2018-04-27T10:12:46.191Z,25.8
2018-04-27T10:13:46.860Z,25.7
2018-04-27T10:14:47.531Z,25.0
2018-04-27T10:15:48.198Z,25.7
2018-04-27T10:16:48.865Z,26.3
2018-04-27T10:17:49.538Z,26.3
2018-04-27T10:18:50.201Z,26.0
2018-04-27T10:19:50.870Z,25.7
2018-04-27T10:20:51.539Z,26.3
2018-04-27T10:21:52.206Z,26.1
2018-04-27T10:22:52.875Z,25.5
2018-04-27T10:23:53.542Z,25.7
2018-04-27T10:24:54.212Z,26.3
2018-04-27T10:25:54.879Z,26.8
2018-04-27T10:26:55.546Z,27.9
2018-04-27T10:27:56.215Z,27.5
2018-04-27T10:28:56.882Z,27.5
2018-04-27T10:29:57.554Z,27.4
2018-04-27T10:30:58.275Z,26.8
2018-04-27T10:31:58.884Z,26.2
2018-04-27T10:32:59.553Z,27.1
2018-04-27T10:34:00.219Z,27.6
2018-04-27T10:35:00.886Z,27.0
2018-04-27T10:36:01.555Z,26.7
2018-04-27T10:37:02.222Z,26.5
2018-04-27T10:38:02.889Z,26.4
2018-04-27T10:39:03.556Z,27.5
2018-04-27T10:40:04.223Z,27.7
2018-04-27T10:41:04.891Z,28.4
2018-04-27T10:42:05.559Z,27.1
2018-04-27T10:43:06.642Z,26.2
2018-04-27T10:44:07.165Z,26.0
2018-04-27T10:45:07.871Z,27.1
2018-04-27T10:46:08.541Z,27.9
2018-04-27T10:47:09.240Z,27.8
2018-04-27T10:48:09.942Z,27.5
2018-04-27T10:49:10.613Z,28.2
2018-04-27T10:50:11.317Z,27.6
2018-04-27T10:51:11.981Z,26.3
2018-04-27T10:52:12.647Z,26.6
2018-04-27T10:53:13.316Z,25.8
2018-04-27T10:54:13.983Z,24.6
2018-04-27T10:55:14.685Z,24.0
2018-04-27T10:56:15.353Z,24.5
2018-04-27T10:57:16.020Z,24.7
2018-04-27T10:58:16.690Z,25.1
2018-04-27T10:59:17.353Z,24.5
2018-04-27T11:00:18.020Z,24.4
2018-04-27T11:01:18.688Z,24.0
2018-04-27T11:02:19.354Z,24.9
2018-04-27T11:03:20.049Z,25.7
2018-04-27T11:04:20.693Z,26.3
2018-04-27T11:05:21.357Z,26.6
2018-04-27T11:06:22.026Z,26.7
2018-04-27T11:07:22.693Z,27.0
2018-04-27T11:08:23.358Z,27.2
2018-04-27T11:09:24.029Z,27.7
2018-04-27T11:10:24.761Z,27.9
2018-04-27T11:11:25.395Z,28.4
2018-04-27T11:12:26.098Z,28.9
2018-04-27T11:13:26.767Z,29.0
2018-04-27T11:14:27.432Z,29.2
2018-04-27T11:15:28.098Z,29.7
2018-04-27T11:16:28.763Z,30.8
2018-04-27T11:17:29.429Z,30.4
2018-04-27T11:18:30.134Z,30.4
2018-04-27T11:19:30.803Z,30.3
2018-04-27T11:20:31.471Z,29.9
2018-04-27T11:21:32.137Z,30.0
2018-04-27T11:22:32.802Z,30.4
2018-04-27T11:23:33.470Z,29.7
2018-04-27T11:24:34.135Z,30.2
2018-04-27T11:25:34.803Z,30.6
2018-04-27T11:26:35.468Z,31.3
2018-04-27T11:27:36.136Z,30.3
2018-04-27T11:28:36.809Z,29.6
2018-04-27T11:29:37.468Z,30.2
2018-04-27T11:30:38.134Z,29.7
2018-04-27T11:31:38.799Z,29.6
2018-04-27T11:32:39.467Z,29.9
2018-04-27T11:33:40.135Z,30.0
2018-04-27T11:34:40.838Z,31.1
2018-04-27T11:35:41.506Z,31.3
2018-04-27T11:36:42.176Z,30.8
2018-04-27T11:37:42.841Z,30.5
2018-04-27T11:38:43.507Z,29.9
2018-04-27T11:39:44.173Z,29.9
2018-04-27T11:40:44.840Z,29.7
2018-04-27T11:41:45.507Z,29.4
2018-04-27T11:42:46.172Z,28.7
2018-04-27T11:43:46.839Z,28.4
2018-04-27T11:44:47.507Z,29.0
2018-04-27T11:45:48.176Z,29.6
2018-04-27T11:46:48.840Z,29.7
2018-04-27T11:47:49.551Z,29.4
2018-04-27T11:48:50.173Z,29.2
2018-04-27T11:49:50.840Z,29.6
2018-04-27T11:50:51.507Z,30.4
2018-04-27T11:51:52.172Z,30.7
2018-04-27T11:52:52.839Z,30.9
2018-04-27T11:53:53.544Z,30.7
2018-04-27T11:54:54.208Z,30.9
2018-04-27T11:55:54.873Z,30.5
2018-04-27T11:56:55.540Z,30.8
2018-04-27T11:57:56.206Z,31.7
2018-04-27T11:58:56.873Z,30.5
2018-04-27T11:59:57.567Z,30.6
2018-04-27T12:00:58.233Z,30.9
2018-04-27T12:01:58.898Z,31.6
2018-04-27T12:02:59.566Z,31.7
2018-04-27T12:04:00.233Z,31.2
2018-04-27T12:05:00.902Z,31.8
2018-04-27T12:06:01.568Z,31.9
2018-04-27T12:07:02.288Z,31.6
2018-04-27T12:08:02.954Z,31.9
2018-04-27T12:09:03.660Z,31.6
2018-04-27T12:10:04.325Z,31.4
2018-04-27T12:11:04.992Z,31.6
2018-04-27T12:12:05.655Z,31.9
2018-04-27T12:13:06.321Z,31.9
2018-04-27T12:14:06.989Z,31.5
2018-04-27T12:15:07.654Z,31.8
2018-04-27T12:16:08.321Z,32.6
2018-04-27T12:17:08.988Z,33.4
2018-04-27T12:18:09.656Z,33.1
2018-04-27T12:19:10.322Z,33.4
2018-04-27T12:20:10.989Z,33.1
2018-04-27T12:21:11.657Z,32.6
2018-04-27T12:22:12.321Z,32.7
2018-04-27T12:23:12.987Z,32.1
2018-04-27T12:24:13.653Z,32.9
2018-04-27T12:25:14.318Z,32.8
2018-04-27T12:26:14.986Z,32.8
2018-04-27T12:27:15.653Z,31.3
2018-04-27T12:28:16.318Z,30.9
2018-04-27T12:29:16.985Z,31.4
2018-04-27T12:30:17.650Z,31.6
2018-04-27T12:31:18.344Z,30.1
2018-04-27T12:32:18.980Z,31.3
2018-04-27T12:33:19.646Z,31.7
2018-04-27T12:34:20.315Z,30.7
2018-04-27T12:35:20.982Z,31.2
2018-04-27T12:36:21.648Z,31.4
2018-04-27T12:37:22.312Z,31.2
2018-04-27T12:38:22.977Z,31.0
2018-04-27T12:39:23.644Z,31.2
2018-04-27T12:40:24.311Z,30.8
2018-04-27T12:41:25.002Z,31.7
2018-04-27T12:42:25.644Z,32.0
2018-04-27T12:43:26.312Z,32.5
2018-04-27T12:44:26.978Z,32.1
2018-04-27T12:45:27.644Z,32.1
2018-04-27T12:46:28.308Z,32.1
2018-04-27T12:47:28.974Z,32.0
2018-04-27T12:48:29.641Z,32.2
2018-04-27T12:49:30.306Z,32.7
2018-04-27T12:50:30.971Z,32.3
2018-04-27T12:51:31.638Z,32.0
2018-04-27T12:52:32.304Z,31.8
2018-04-27T12:53:32.970Z,32.0
2018-04-27T12:54:33.635Z,31.5
2018-04-27T12:55:34.305Z,31.5
2018-04-27T12:56:35.005Z,31.8
2018-04-27T12:57:35.671Z,31.5
2018-04-27T12:58:36.338Z,31.7
2018-04-27T12:59:37.005Z,31.7
2018-04-27T13:00:37.672Z,31.8
2018-04-27T13:01:38.337Z,31.8
2018-04-27T13:02:38.999Z,31.8
2018-04-27T13:03:39.665Z,31.4
2018-04-27T13:04:40.333Z,31.7
2018-04-27T13:05:40.997Z,32.1
2018-04-27T13:06:41.663Z,32.6
2018-04-27T13:07:42.332Z,32.6
2018-04-27T13:08:42.997Z,32.1
2018-04-27T13:09:43.664Z,32.1
2018-04-27T13:10:44.366Z,32.0
2018-04-27T13:11:45.033Z,32.7
2018-04-27T13:12:45.700Z,32.8
2018-04-27T13:13:46.365Z,32.8
2018-04-27T13:14:47.029Z,33.2
2018-04-27T13:15:47.695Z,33.4
2018-04-27T13:16:48.399Z,33.4
2018-04-27T13:17:49.064Z,33.8
2018-04-27T13:18:49.730Z,33.5
2018-04-27T13:19:50.396Z,34.0
2018-04-27T13:20:51.097Z,34.3
2018-04-27T13:21:51.766Z,33.9
2018-04-27T13:22:52.466Z,33.9
2018-04-27T13:23:53.131Z,32.9
2018-04-27T13:24:53.797Z,32.1
2018-04-27T13:25:54.461Z,32.8
2018-04-27T13:26:55.127Z,32.7